Terminal Aerodrome Forecast
Issued by NWS

Home | Current Version | Previous Version | Graphics & Text | Print | Product List | Glossary On
Versions: 1 2 3 4 5 6 7 8 9 10 11 12 13
000
FTUS43 KTOP 081734
TAFMHK
TAF
KMHK 081734Z 0818/0918 35011KT P6SM BKN035
      TEMPO 0818/0820 BKN025
     FM082300 32007KT P6SM SCT045
     FM091500 32008G17KT P6SM SKC=

USA.gov is the U.S. government's official web portal to all federal, state and local government web resources and services.